Terminal Aerodrome Forecast
Issued by NWS

Home | Current Version | Previous Version | Graphics & Text | Print | Product List | Glossary On
Versions: 1 2 3 4 5 6 7 8 9 10 11 12 13 14
000
FTUS43 KGRB 092050 AAA
TAFRHI
TAF AMD
KRHI 092050Z 0921/1018 30009KT P6SM SCT020 BKN035
      TEMPO 0921/1001 -SN SCT014 BKN022
     FM100100 28006KT P6SM SCT025 BKN035
      TEMPO 1001/1004 -SN SCT014 BKN025
     FM101500 29006KT P6SM FEW020 SCT040=

USA.gov is the U.S. government's official web portal to all federal, state and local government web resources and services.